LFAT/LTQ METAR and TAF weather

Enter ICAO airport designator
Station Type Date Time Source
LFAT METAR 2018/12/15 20:00 UTC NOAA

LFAT 152000Z AUTO 14014KT 4100 -RA BR OVC007 01/00 Q1007


Station Type Date Time Source
LFAT Decoded METAR 2018/12/15 20:00 UTC NOAA

Le Touquet, France (LFAT) 50-31N 001-37E 14M
Dec 15, 2018 - 03:00 PM EST / 2018.12.15 2000 UTC
Wind: from the SE (140 degrees) at 16 MPH (14 KT):0
Visibility: 2 mile(s):0
Sky conditions: overcast
Weather: light rain; mist
Temperature: 33 F (1 C)
Windchill: 23 F (-5 C):1
Dew Point: 32 F (0 C)
Relative Humidity: 93%
Pressure (altimeter): 29.74 in. Hg (1007 hPa)
ob: LFAT 152000Z AUTO 14014KT 4100 -RA BR OVC007 01/00 Q1007
cycle: 20

Station Type Date Time Source
LFAT TAF 2018/07/14 09:21 UTC NOAA

TAF TAF LFAT 140800Z 1409/1421 09004KT 8000 NSC
BECMG 1409/1411 30010KT


Example: see airport list